Time;durP1;ratioP1;P1;durP2;ratioP2;P2;SDS_P1;SDS_P2;PMS_P1;PMS_P2;Temp;Humidity;BMP_temperature;BMP_pressure;BME280_temperature;BME280_humidity;BME280_pressure;Samples;Min_cycle;Max_cycle;Signal;HPM_P1;HPM_P2
2023/10/02 00:01:07;;;;;;;17.63;4.07;;;26.00;99.90;;;;;;4990390;28;20201;-70
2023/10/02 00:03:42;;;;;;;15.67;3.93;;;27.20;99.90;;;;;;4991617;28;20229;-69
2023/10/02 00:06:11;;;;;;;21.50;4.10;;;27.90;99.90;;;;;;4991742;28;20182;-71
2023/10/02 00:08:42;;;;;;;15.27;4.70;;;28.60;99.90;;;;;;4984001;28;20191;-70
2023/10/02 00:11:36;;;;;;;14.50;4.07;;;28.70;99.90;;;;;;4986364;28;20255;-68
2023/10/02 00:14:20;;;;;;;17.57;3.97;;;29.00;99.90;;;;;;4991743;28;20178;-70
2023/10/02 00:17:14;;;;;;;16.23;3.93;;;28.30;99.90;;;;;;4995130;28;20209;-67
2023/10/02 00:19:43;;;;;;;16.87;4.17;;;29.10;99.20;;;;;;4993184;28;20190;-69
2023/10/02 00:22:42;;;;;;;14.47;4.13;;;29.10;99.90;;;;;;4976085;28;20183;-66
2023/10/02 00:25:19;;;;;;;16.47;4.07;;;28.20;99.30;;;;;;4982981;28;20255;-71
2023/10/02 00:27:51;;;;;;;20.40;4.17;;;28.50;96.90;;;;;;4989076;28;20599;-67
2023/10/02 00:30:35;;;;;;;19.47;4.77;;;28.70;98.10;;;;;;4975516;28;20198;-66
2023/10/02 00:33:05;;;;;;;14.80;4.77;;;29.00;99.90;;;;;;4976234;28;20330;-71
2023/10/02 00:35:50;;;;;;;19.77;3.70;;;29.00;94.90;;;;;;4976198;28;20253;-71
2023/10/02 00:38:18;;;;;;;17.87;3.57;;;28.40;94.30;;;;;;4978158;28;20190;-71
2023/10/02 00:40:45;;;;;;;15.27;3.77;;;27.90;97.30;;;;;;4976026;28;20715;-71
2023/10/02 00:46:23;;;;;;;15.90;3.63;;;27.60;97.70;;;;;;4915583;29;20197;-67
2023/10/02 00:48:51;;;;;;;16.23;4.27;;;27.60;98.40;;;;;;4928554;28;20273;-66
2023/10/02 00:51:19;;;;;;;20.37;4.60;;;28.20;96.70;;;;;;4958265;28;20906;-72
2023/10/02 00:53:48;;;;;;;22.47;4.63;;;27.90;96.30;;;;;;4984941;28;20563;-67
2023/10/02 00:56:21;;;;;;;15.90;3.57;;;27.10;97.50;;;;;;4990090;28;20183;-71
2023/10/02 00:59:00;;;;;;;13.80;3.93;;;26.50;99.90;;;;;;4978231;28;20190;-68
2023/10/02 01:01:34;;;;;;;17.13;4.40;;;27.10;99.90;;;;;;4975198;28;20203;-70
2023/10/02 01:07:54;;;;;;;23.20;3.97;;;28.60;94.90;;;;;;4982159;28;20594;-70
2023/10/02 01:10:23;;;;;;;16.00;3.20;;;28.80;93.70;;;;;;4983748;28;20182;-65
2023/10/02 01:12:53;;;;;;;23.00;4.83;;;29.20;93.70;;;;;;4984378;28;20229;-68
2023/10/02 01:15:26;;;;;;;18.33;4.17;;;27.70;94.70;;;;;;4985220;28;20628;-72
2023/10/02 01:18:18;;;;;;;9.97;3.20;;;26.70;99.90;;;;;;4985424;28;20188;-67
2023/10/02 01:20:48;;;;;;;16.53;3.83;;;27.40;99.90;;;;;;4989017;28;20186;-67
2023/10/02 01:23:25;;;;;;;17.03;3.90;;;27.70;97.90;;;;;;4994498;28;20376;-71
2023/10/02 01:26:02;;;;;;;11.30;3.20;;;28.60;99.70;;;;;;4994063;28;20645;-70
2023/10/02 01:28:54;;;;;;;8.70;3.40;;;29.40;95.00;;;;;;4993521;28;20186;-71
2023/10/02 01:31:32;;;;;;;13.73;3.87;;;29.70;91.80;;;;;;4979666;28;20222;-69
2023/10/02 01:34:04;;;;;;;15.97;3.77;;;29.30;93.00;;;;;;4977141;28;20198;-70
2023/10/02 01:36:33;;;;;;;12.83;3.33;;;29.70;89.10;;;;;;4974830;28;20187;-66
2023/10/02 01:39:15;;;;;;;20.23;4.10;;;29.70;92.50;;;;;;4991143;28;20684;-69
2023/10/02 01:41:52;;;;;;;13.67;3.10;;;29.90;93.80;;;;;;4991038;28;20216;-68
2023/10/02 01:44:24;;;;;;;16.67;3.87;;;30.00;89.20;;;;;;4979749;28;20178;-69
2023/10/02 01:46:52;;;;;;;17.23;3.63;;;29.40;92.60;;;;;;4994400;28;20178;-70
2023/10/02 01:49:27;;;;;;;16.75;3.42;;;29.60;93.40;;;;;;4993282;28;20670;-69
2023/10/02 01:52:02;;;;;;;14.17;3.23;;;29.00;92.10;;;;;;4993326;28;20220;-70
2023/10/02 01:54:30;;;;;;;17.70;3.87;;;29.10;93.20;;;;;;4993791;28;20662;-70
2023/10/02 01:57:04;;;;;;;15.27;4.17;;;29.80;91.00;;;;;;4994202;28;20261;-70
2023/10/02 01:59:32;;;;;;;12.80;3.13;;;30.20;81.20;;;;;;4974209;28;20250;-70
2023/10/02 02:02:12;;;;;;;12.50;3.30;;;30.10;83.00;;;;;;4956910;28;20349;-70
2023/10/02 02:04:42;;;;;;;14.77;3.37;;;29.80;84.10;;;;;;4974330;28;20194;-72
2023/10/02 02:07:10;;;;;;;14.80;3.60;;;30.20;90.00;;;;;;4974742;28;20249;-72
2023/10/02 02:09:37;;;;;;;16.97;4.03;;;30.10;90.00;;;;;;4968883;28;20187;-71
2023/10/02 02:12:13;;;;;;;11.63;3.27;;;30.10;90.50;;;;;;4974251;28;20627;-71
2023/10/02 02:14:49;;;;;;;16.13;3.37;;;29.40;83.00;;;;;;4974040;28;20298;-70
2023/10/02 02:17:23;;;;;;;15.27;3.23;;;28.90;90.40;;;;;;4957269;28;20681;-70
2023/10/02 02:19:52;;;;;;;14.77;3.77;;;29.40;90.00;;;;;;4974466;28;20175;-71
2023/10/02 02:22:26;;;;;;;12.57;3.50;;;29.50;88.20;;;;;;4974134;28;20573;-67
2023/10/02 02:25:04;;;;;;;14.87;3.50;;;29.30;89.60;;;;;;4957863;28;20215;-72
2023/10/02 02:27:32;;;;;;;19.67;4.00;;;29.90;87.10;;;;;;4977208;28;20582;-69
2023/10/02 02:33:38;;;;;;;10.80;3.20;;;29.80;87.30;;;;;;4992960;28;20236;-67
2023/10/02 02:36:09;;;;;;;16.70;4.17;;;29.40;90.10;;;;;;4992763;28;20584;-67
2023/10/02 02:38:38;;;;;;;18.27;4.17;;;29.00;93.00;;;;;;4983274;28;20183;-71
2023/10/02 02:41:09;;;;;;;13.67;3.43;;;29.20;94.10;;;;;;4974060;28;20186;-71
2023/10/02 02:43:38;;;;;;;17.13;3.50;;;29.50;91.40;;;;;;4973574;28;20175;-72
2023/10/02 02:46:17;;;;;;;12.00;3.60;;;29.60;86.80;;;;;;4973809;28;20645;-70
2023/10/02 02:48:44;;;;;;;16.43;3.80;;;29.90;89.30;;;;;;4985354;28;20179;-71
2023/10/02 02:51:15;;;;;;;17.57;3.67;;;29.70;87.40;;;;;;4992716;28;20623;-72
2023/10/02 02:53:43;;;;;;;13.87;3.90;;;30.00;84.40;;;;;;4993163;28;20171;-71
2023/10/02 02:56:18;;;;;;;16.77;3.60;;;30.00;85.40;;;;;;4984937;28;20183;-70
2023/10/02 02:58:51;;;;;;;21.13;4.27;;;29.80;82.90;;;;;;4967133;28;20196;-69
2023/10/02 03:01:24;;;;;;;16.07;4.30;;;29.70;88.80;;;;;;4992880;28;20193;-71
2023/10/02 03:03:55;;;;;;;15.40;3.87;;;29.80;87.50;;;;;;4992938;28;20265;-71
2023/10/02 03:06:23;;;;;;;19.80;3.80;;;29.80;84.50;;;;;;4992490;28;20186;-72
2023/10/02 03:08:52;;;;;;;15.63;3.47;;;29.70;85.20;;;;;;4980230;28;20210;-68
2023/10/02 03:11:28;;;;;;;14.17;4.27;;;29.30;85.40;;;;;;4973302;28;20294;-71
2023/10/02 03:14:15;;;;;;;17.00;4.20;;;29.30;87.30;;;;;;4972888;28;20179;-71
2023/10/02 03:16:47;;;;;;;11.60;3.57;;;29.10;90.70;;;;;;4973290;28;20203;-70
2023/10/02 03:19:16;;;;;;;18.17;3.70;;;28.80;90.40;;;;;;4988728;28;20269;-71
2023/10/02 03:21:44;;;;;;;13.50;3.83;;;28.30;91.50;;;;;;4974991;28;20189;-71
2023/10/02 03:24:18;;;;;;;21.20;4.63;;;28.30;92.30;;;;;;4992598;28;20198;-70
2023/10/02 03:26:52;;;;;;;17.60;4.00;;;28.20;92.80;;;;;;4990381;28;20241;-71
2023/10/02 03:29:22;;;;;;;12.53;3.67;;;28.30;94.60;;;;;;4975551;28;20579;-71
2023/10/02 03:31:50;;;;;;;17.13;3.70;;;28.70;94.70;;;;;;4972751;28;20219;-71
2023/10/02 03:34:34;;;;;;;16.17;4.03;;;28.30;94.20;;;;;;4972610;28;20199;-70
2023/10/02 03:37:14;;;;;;;17.20;3.43;;;27.50;97.10;;;;;;4972517;28;20183;-70
2023/10/02 03:39:59;;;;;;;21.17;3.77;;;27.50;97.40;;;;;;4991313;28;20182;-69
2023/10/02 03:42:31;;;;;;;16.30;3.67;;;27.50;99.90;;;;;;4972699;28;20219;-69
2023/10/02 03:45:03;;;;;;;18.53;3.73;;;27.90;99.90;;;;;;4972877;28;20210;-68
2023/10/02 03:47:35;;;;;;;11.60;3.10;;;28.20;99.10;;;;;;4981844;28;20179;-68
2023/10/02 03:50:05;;;;;;;23.77;4.07;;;28.00;99.90;;;;;;4991686;28;20202;-70
2023/10/02 03:52:34;;;;;;;16.17;3.70;;;28.00;98.60;;;;;;4976135;28;20231;-68
2023/10/02 03:55:16;;;;;;;14.60;3.13;;;27.50;99.90;;;;;;4972559;28;20194;-67
2023/10/02 03:57:50;;;;;;;18.13;3.80;;;27.00;99.90;;;;;;4972219;28;20257;-68
2023/10/02 04:00:25;;;;;;;15.83;4.00;;;26.50;99.90;;;;;;4972911;28;20692;-67
2023/10/02 04:02:56;;;;;;;11.07;3.10;;;26.80;99.90;;;;;;4973461;28;20262;-70
2023/10/02 04:05:42;;;;;;;14.20;3.70;;;27.60;99.90;;;;;;4959605;28;20187;-67
2023/10/02 04:08:33;;;;;;;15.17;3.50;;;27.80;99.90;;;;;;4957678;28;20269;-70
2023/10/02 04:11:03;;;;;;;20.47;4.33;;;28.20;99.90;;;;;;4972477;28;20210;-69
2023/10/02 04:13:34;;;;;;;12.60;3.07;;;27.80;99.90;;;;;;4971766;28;20197;-68
2023/10/02 04:18:49;;;;;;;15.17;3.83;;;27.60;99.90;;;;;;4958346;28;20221;-69
2023/10/02 04:21:22;;;;;;;14.40;4.03;;;27.40;99.90;;;;;;4972116;28;20195;-70
2023/10/02 04:23:53;;;;;;;15.67;3.87;;;27.20;99.90;;;;;;4973017;28;20191;-69
2023/10/02 04:26:23;;;;;;;16.60;3.93;;;27.20;99.90;;;;;;4991699;28;20262;-69
2023/10/02 04:28:57;;;;;;;13.50;3.33;;;27.00;99.90;;;;;;4991593;28;20178;-70
2023/10/02 04:31:34;;;;;;;22.47;4.13;;;26.70;99.90;;;;;;4991723;28;20766;-69
2023/10/02 04:36:47;;;;;;;13.53;3.17;;;26.40;99.90;;;;;;4991902;28;20747;-69
2023/10/02 04:44:47;;;;;;;23.87;4.37;;;26.90;99.90;;;;;;4983429;28;20222;-71
2023/10/02 04:47:17;;;;;;;15.33;3.40;;;26.80;99.90;;;;;;4954931;28;20566;-69
2023/10/02 04:55:25;;;;;;;14.40;3.27;;;26.60;99.90;;;;;;4984580;28;20340;-68
2023/10/02 04:58:03;;;;;;;15.40;3.73;;;26.60;99.90;;;;;;4991246;28;20633;-68
2023/10/02 05:00:34;;;;;;;14.80;3.47;;;26.50;99.90;;;;;;4984438;28;20191;-69
2023/10/02 05:03:21;;;;;;;17.03;3.60;;;26.30;99.90;;;;;;4975380;28;20222;-67
2023/10/02 05:05:49;;;;;;;17.00;3.17;;;26.30;99.90;;;;;;4976001;28;20191;-70
2023/10/02 05:08:19;;;;;;;15.23;3.30;;;26.00;99.90;;;;;;4974931;28;20214;-72
2023/10/02 05:10:49;;;;;;;18.10;4.33;;;26.10;99.90;;;;;;4958284;28;20350;-71
2023/10/02 05:16:12;;;;;;;18.27;3.90;;;25.70;99.90;;;;;;4975850;28;20187;-68
2023/10/02 05:18:51;;;;;;;26.33;4.20;;;25.40;99.90;;;;;;4957950;28;20203;-70
2023/10/02 05:21:19;;;;;;;11.70;3.47;;;25.60;99.90;;;;;;4975654;28;20592;-69
2023/10/02 05:24:02;;;;;;;19.07;3.83;;;25.80;99.90;;;;;;4975629;28;20237;-70
2023/10/02 05:26:36;;;;;;;19.63;4.50;;;25.90;99.90;;;;;;4974600;28;20234;-69
2023/10/02 05:29:07;;;;;;;15.33;3.87;;;25.40;99.90;;;;;;4975830;28;20176;-70
2023/10/02 05:31:36;;;;;;;14.33;3.43;;;25.40;99.90;;;;;;4975361;28;20211;-68
2023/10/02 05:34:21;;;;;;;17.90;4.27;;;25.40;99.90;;;;;;4976793;28;20199;-70
2023/10/02 05:39:40;;;;;;;16.60;4.13;;;25.30;99.90;;;;;;4976554;28;20257;-70
2023/10/02 05:42:15;;;;;;;18.93;3.90;;;25.20;99.90;;;;;;4976384;28;20183;-69
2023/10/02 05:44:44;;;;;;;14.63;3.80;;;25.20;99.90;;;;;;4977082;28;20189;-69
2023/10/02 05:47:15;;;;;;;19.13;4.07;;;25.20;99.90;;;;;;4976779;28;20211;-68
2023/10/02 05:49:47;;;;;;;19.47;4.70;;;25.40;99.90;;;;;;4961748;28;20187;-68
2023/10/02 05:52:23;;;;;;;11.93;3.80;;;25.40;99.90;;;;;;4993781;28;20559;-69
2023/10/02 05:54:54;;;;;;;17.60;4.23;;;25.20;99.90;;;;;;4976399;28;20584;-67
2023/10/02 05:57:31;;;;;;;16.20;3.73;;;25.30;99.90;;;;;;4993119;28;20183;-70
2023/10/02 06:00:00;;;;;;;21.97;4.40;;;25.10;99.90;;;;;;4980576;28;20201;-66
2023/10/02 06:02:28;;;;;;;18.47;4.47;;;24.80;99.90;;;;;;4974744;28;20557;-70
2023/10/02 06:05:07;;;;;;;14.77;3.53;;;24.40;99.90;;;;;;4973357;28;20191;-70
2023/10/02 06:07:43;;;;;;;23.33;4.13;;;24.50;99.90;;;;;;4974674;28;20190;-70
2023/10/02 06:10:26;;;;;;;19.53;4.87;;;24.50;99.90;;;;;;4988247;28;20190;-66
2023/10/02 06:13:03;;;;;;;17.07;4.00;;;24.60;99.90;;;;;;4992432;28;20257;-69
2023/10/02 06:16:21;;;;;;;18.57;4.50;;;24.70;99.90;;;;;;4992037;28;20192;-70
2023/10/02 06:19:13;;;;;;;16.60;3.70;;;24.50;99.90;;;;;;4993852;28;20245;-67
2023/10/02 06:24:28;;;;;;;16.87;3.23;;;24.50;99.90;;;;;;4987693;28;20785;-65
2023/10/02 06:27:04;;;;;;;15.93;3.70;;;24.40;99.90;;;;;;4956213;28;20280;-68
2023/10/02 06:29:37;;;;;;;15.87;4.13;;;24.30;99.90;;;;;;4985110;28;20190;-73
2023/10/02 06:32:09;;;;;;;20.77;4.50;;;24.30;99.90;;;;;;4993468;28;20221;-70
2023/10/02 06:34:39;;;;;;;19.17;4.17;;;24.20;99.90;;;;;;4968755;28;20195;-71
2023/10/02 06:37:19;;;;;;;17.00;3.73;;;24.20;99.90;;;;;;4973512;28;20198;-67
2023/10/02 06:40:04;;;;;;;18.77;4.13;;;24.20;99.90;;;;;;4974144;28;20213;-69
2023/10/02 06:42:33;;;;;;;12.97;3.70;;;24.20;99.90;;;;;;4973505;28;20195;-69
2023/10/02 06:45:09;;;;;;;17.43;4.17;;;24.10;99.90;;;;;;4974028;28;20230;-71
2023/10/02 06:47:50;;;;;;;20.53;4.37;;;23.80;99.90;;;;;;4973886;28;20553;-72
2023/10/02 06:50:28;;;;;;;26.80;4.00;;;23.60;99.90;;;;;;4973465;28;20183;-70
2023/10/02 06:53:00;;;;;;;21.83;4.57;;;23.50;99.90;;;;;;4982680;28;20707;-70
2023/10/02 06:55:32;;;;;;;19.10;4.73;;;23.20;99.90;;;;;;4976743;28;20179;-67
2023/10/02 06:58:00;;;;;;;21.67;4.67;;;22.90;99.90;;;;;;4956496;28;20186;-69
2023/10/02 07:00:54;;;;;;;31.20;4.77;;;22.90;99.90;;;;;;4973719;28;20677;-70
2023/10/02 07:03:24;;;;;;;21.23;5.33;;;22.80;99.90;;;;;;4955827;28;20274;-67
2023/10/02 07:05:52;;;;;;;21.20;5.20;;;22.80;99.90;;;;;;4989531;28;20276;-71
2023/10/02 07:08:28;;;;;;;25.47;5.07;;;22.50;99.90;;;;;;4993148;28;20179;-71
2023/10/02 07:10:58;;;;;;;21.23;5.10;;;22.40;99.90;;;;;;4992368;28;20247;-71
2023/10/02 07:13:26;;;;;;;18.83;4.20;;;22.40;99.90;;;;;;4992929;28;20269;-70
2023/10/02 07:15:59;;;;;;;18.23;4.47;;;22.40;99.90;;;;;;4976555;28;20239;-72
2023/10/02 07:18:37;;;;;;;19.90;4.53;;;22.30;99.90;;;;;;4974001;28;20205;-69
2023/10/02 07:21:09;;;;;;;21.37;4.57;;;22.30;99.90;;;;;;4961764;28;20371;-70
2023/10/02 07:23:40;;;;;;;34.07;5.57;;;22.20;99.90;;;;;;4989013;28;20192;-71
2023/10/02 07:26:17;;;;;;;23.07;5.07;;;21.90;99.90;;;;;;4956711;28;20644;-71
2023/10/02 07:28:50;;;;;;;21.70;4.70;;;21.60;99.90;;;;;;4976355;28;20193;-72
2023/10/02 07:31:22;;;;;;;22.20;5.57;;;21.50;99.90;;;;;;5000686;28;20209;-73
2023/10/02 07:33:55;;;;;;;19.37;4.57;;;21.40;99.90;;;;;;4975102;28;20190;-74
2023/10/02 07:36:32;;;;;;;25.27;4.97;;;21.20;99.90;;;;;;4975031;28;20191;-69
2023/10/02 07:39:00;;;;;;;19.90;4.63;;;21.20;99.90;;;;;;4973097;28;20193;-73
2023/10/02 07:41:28;;;;;;;27.53;6.13;;;21.10;99.90;;;;;;4972594;28;20192;-70
2023/10/02 07:44:07;;;;;;;24.93;5.00;;;21.10;99.90;;;;;;4973141;28;20191;-71
2023/10/02 07:46:38;;;;;;;25.23;5.80;;;21.10;99.90;;;;;;4988827;28;20245;-71
2023/10/02 07:49:10;;;;;;;27.40;5.33;;;21.10;99.90;;;;;;4981917;28;20217;-71
2023/10/02 07:51:37;;;;;;;28.30;6.00;;;21.00;99.90;;;;;;4972809;28;20309;-71
2023/10/02 07:54:08;;;;;;;25.90;4.83;;;20.90;99.90;;;;;;4973014;28;20205;-71
2023/10/02 07:56:36;;;;;;;24.47;5.97;;;20.80;99.90;;;;;;4985335;28;20337;-72
2023/10/02 07:59:09;;;;;;;29.03;6.17;;;20.70;99.90;;;;;;4992268;28;20187;-71
2023/10/02 08:01:39;;;;;;;28.20;5.80;;;20.70;99.90;;;;;;4974686;28;20328;-72
2023/10/02 08:04:07;;;;;;;21.97;5.40;;;20.70;99.90;;;;;;4951753;28;20301;-71
2023/10/02 08:06:36;;;;;;;27.03;5.87;;;20.60;99.90;;;;;;4956204;28;20185;-70
2023/10/02 08:11:53;;;;;;;31.20;6.30;;;20.50;99.90;;;;;;4975921;28;20837;-69
2023/10/02 08:14:46;;;;;;;26.60;6.13;;;20.50;99.90;;;;;;4977844;28;20187;-71
2023/10/02 08:20:31;;;;;;;22.70;6.27;;;20.50;99.90;;;;;;4972757;28;20184;-70
2023/10/02 08:22:51;;;;;;;23.43;6.97;;;20.40;99.90;;;;;;4990398;28;20202;-70
2023/10/02 08:25:23;;;;;;;27.67;6.90;;;20.40;99.90;;;;;;4991416;28;20236;-70
2023/10/02 08:27:57;;;;;;;29.03;7.23;;;20.40;99.90;;;;;;4991589;28;20646;-70
2023/10/02 08:30:28;;;;;;;25.20;7.57;;;20.40;99.90;;;;;;4972437;28;20190;-70
2023/10/02 08:33:19;;;;;;;27.00;7.03;;;20.30;99.90;;;;;;4972139;28;20231;-70
2023/10/02 08:35:49;;;;;;;27.63;7.70;;;20.40;99.90;;;;;;4973165;28;20553;-68
2023/10/02 08:38:22;;;;;;;28.87;8.20;;;20.40;99.90;;;;;;4976289;28;20193;-71
2023/10/02 08:40:57;;;;;;;28.27;7.13;;;20.30;99.90;;;;;;4978422;28;20638;-70
2023/10/02 08:43:26;;;;;;;27.10;7.37;;;20.30;99.90;;;;;;4995859;28;20201;-71
2023/10/02 08:45:58;;;;;;;20.83;6.93;;;20.30;99.90;;;;;;4976997;28;20545;-70
2023/10/02 08:48:31;;;;;;;29.30;7.80;;;20.20;99.90;;;;;;4975863;28;20602;-71
2023/10/02 08:51:00;;;;;;;26.93;8.47;;;20.20;99.90;;;;;;4976733;28;20660;-70
2023/10/02 08:53:28;;;;;;;33.97;8.90;;;20.20;99.90;;;;;;4976149;28;20306;-69
2023/10/02 08:56:23;;;;;;;28.30;8.87;;;20.10;99.90;;;;;;4983409;28;20195;-68
2023/10/02 08:59:16;;;;;;;34.27;8.83;;;20.20;99.90;;;;;;4984272;28;20223;-69
2023/10/02 09:01:47;;;;;;;31.87;9.73;;;20.10;99.90;;;;;;4976125;28;20183;-68
2023/10/02 09:04:22;;;;;;;28.33;9.20;;;20.10;99.90;;;;;;4993701;28;20187;-67
2023/10/02 09:06:58;;;;;;;27.47;9.40;;;20.00;99.90;;;;;;4996377;28;20700;-71
2023/10/02 09:09:35;;;;;;;27.30;9.40;;;20.00;99.90;;;;;;4996922;28;20176;-67
2023/10/02 09:12:03;;;;;;;33.83;9.47;;;20.00;99.90;;;;;;4996669;28;20249;-67
2023/10/02 09:17:12;;;;;;;36.53;8.87;;;19.90;99.90;;;;;;4977361;28;20186;-69
2023/10/02 09:19:48;;;;;;;42.93;9.27;;;19.90;99.90;;;;;;4977488;28;20244;-67
2023/10/02 09:22:18;;;;;;;33.93;9.90;;;19.90;99.90;;;;;;4977870;28;20274;-70
2023/10/02 09:24:58;;;;;;;34.97;10.33;;;19.90;99.90;;;;;;4932197;28;20189;-72
2023/10/02 09:27:38;;;;;;;32.90;9.13;;;19.90;99.90;;;;;;4960368;28;20195;-70
2023/10/02 09:30:22;;;;;;;24.00;8.90;;;19.90;99.90;;;;;;4977074;28;20271;-69
2023/10/02 09:32:52;;;;;;;33.00;9.13;;;19.90;99.90;;;;;;4993265;28;20214;-70
2023/10/02 09:36:02;;;;;;;32.17;9.27;;;19.90;99.90;;;;;;4977116;28;20599;-71
2023/10/02 09:38:24;;;;;;;32.30;9.80;;;19.90;99.90;;;;;;4972931;28;20650;-71
2023/10/02 09:40:56;;;;;;;32.93;10.00;;;19.80;99.90;;;;;;4966933;28;20654;-71
2023/10/02 09:43:25;;;;;;;38.60;8.97;;;19.90;99.90;;;;;;4975244;28;20274;-70
2023/10/02 09:45:55;;;;;;;27.67;9.30;;;19.90;99.90;;;;;;4975112;28;20205;-69
2023/10/02 09:51:37;;;;;;;33.53;9.73;;;19.80;99.90;;;;;;4977733;28;20216;-72
2023/10/02 09:54:17;;;;;;;28.07;9.10;;;19.80;99.90;;;;;;4994800;28;20265;-70
2023/10/02 09:56:51;;;;;;;31.20;10.70;;;19.70;99.90;;;;;;4994148;28;20261;-70
2023/10/02 09:59:24;;;;;;;38.20;11.77;;;19.70;99.90;;;;;;4990184;28;20667;-67
2023/10/02 10:11:03;;;;;;;27.70;9.27;;;19.80;99.90;;;;;;4991976;28;20192;-69
2023/10/02 10:13:37;;;;;;;33.50;8.90;;;19.60;99.90;;;;;;4979347;28;20280;-71
2023/10/02 10:16:19;;;;;;;34.57;10.33;;;19.60;99.90;;;;;;4972158;28;20180;-71
2023/10/02 10:22:00;;;;;;;45.07;10.37;;;19.50;99.90;;;;;;4974672;28;20249;-71
2023/10/02 10:27:41;;;;;;;37.87;11.23;;;19.50;99.90;;;;;;4987755;28;20257;-66
2023/10/02 10:30:34;;;;;;;36.53;10.87;;;19.40;99.90;;;;;;4992748;28;20197;-67
2023/10/02 10:35:52;;;;;;;34.50;9.97;;;19.40;99.90;;;;;;4973375;28;20200;-68
2023/10/02 10:38:26;;;;;;;32.67;10.00;;;19.40;99.90;;;;;;4973203;28;20187;-67
2023/10/02 10:41:00;;;;;;;29.97;9.67;;;19.30;99.90;;;;;;4972944;28;20205;-67
2023/10/02 10:43:55;;;;;;;34.03;9.83;;;19.30;99.90;;;;;;4973399;28;20190;-68
2023/10/02 10:46:30;;;;;;;29.73;10.50;;;19.30;99.90;;;;;;4976442;28;20209;-66
2023/10/02 10:49:07;;;;;;;42.13;11.20;;;19.30;99.90;;;;;;4973125;28;20205;-67
2023/10/02 10:51:39;;;;;;;34.80;9.87;;;19.30;99.90;;;;;;4973513;28;20695;-68
2023/10/02 10:54:25;;;;;;;31.47;10.10;;;19.20;99.90;;;;;;4984004;28;20182;-68
2023/10/02 10:57:22;;;;;;;27.53;10.47;;;19.20;99.90;;;;;;4975147;28;20222;-68
2023/10/02 11:00:25;;;;;;;27.93;10.23;;;19.20;99.90;;;;;;4973502;28;20637;-67
2023/10/02 11:03:07;;;;;;;34.00;11.10;;;19.30;99.90;;;;;;4986227;28;20222;-66
2023/10/02 11:05:37;;;;;;;28.53;10.03;;;19.30;99.90;;;;;;4977379;28;20546;-69
2023/10/02 11:08:23;;;;;;;40.97;10.70;;;19.30;99.90;;;;;;4993637;28;20186;-70
2023/10/02 11:11:04;;;;;;;34.13;10.20;;;19.30;99.90;;;;;;4993685;28;20182;-70
2023/10/02 11:13:50;;;;;;;35.23;10.73;;;19.30;99.90;;;;;;4994261;28;20655;-67
2023/10/02 11:16:34;;;;;;;35.40;12.87;;;19.30;99.90;;;;;;4984884;28;20214;-70
2023/10/02 11:19:23;;;;;;;37.17;11.47;;;19.30;99.90;;;;;;4974386;28;20179;-71
2023/10/02 11:22:22;;;;;;;43.37;11.23;;;19.30;99.90;;;;;;4974195;28;20189;-66
2023/10/02 11:24:54;;;;;;;40.20;10.10;;;19.30;99.90;;;;;;4843816;28;3794578;-68
2023/10/02 11:27:23;;;;;;;34.27;10.57;;;19.30;99.90;;;;;;4989115;28;20277;-66
2023/10/02 11:30:04;;;;;;;38.23;10.57;;;19.40;99.90;;;;;;4985600;28;20660;-71
2023/10/02 11:33:04;;;;;;;35.93;10.00;;;19.40;99.90;;;;;;4974736;28;20229;-72
2023/10/02 11:35:38;;;;;;;36.20;9.47;;;19.40;99.90;;;;;;4923348;28;20670;-70
2023/10/02 11:38:09;;;;;;;33.17;9.53;;;19.40;99.90;;;;;;4984980;28;20280;-72
2023/10/02 11:40:37;;;;;;;32.63;9.43;;;19.40;99.90;;;;;;4994325;28;20539;-71
2023/10/02 11:43:04;;;;;;;26.70;9.40;;;19.40;99.90;;;;;;4994120;28;20174;-72
2023/10/02 11:45:36;;;;;;;31.23;9.30;;;19.50;99.90;;;;;;4992221;28;20178;-71
2023/10/02 11:48:04;;;;;;;35.07;9.90;;;19.40;99.90;;;;;;4957978;28;20199;-72
2023/10/02 11:50:31;;;;;;;31.50;9.47;;;19.40;99.90;;;;;;4975035;28;20568;-70
2023/10/02 11:53:00;;;;;;;25.60;8.30;;;19.50;99.90;;;;;;4983488;28;20220;-72
2023/10/02 11:55:28;;;;;;;30.63;8.83;;;19.40;99.90;;;;;;4967434;28;20198;-72
2023/10/02 11:57:57;;;;;;;35.43;10.63;;;19.50;99.90;;;;;;4985695;28;20192;-71
2023/10/02 12:00:24;;;;;;;40.80;9.97;;;19.40;99.90;;;;;;4984561;28;20232;-71
2023/10/02 12:02:53;;;;;;;29.67;9.40;;;19.40;99.90;;;;;;4989262;28;20534;-71
2023/10/02 12:05:22;;;;;;;26.90;8.83;;;19.40;99.90;;;;;;4978274;28;20202;-72
2023/10/02 12:07:50;;;;;;;39.17;10.60;;;19.40;99.90;;;;;;4969693;28;20655;-72
2023/10/02 12:10:17;;;;;;;38.63;10.17;;;19.50;99.90;;;;;;4985274;28;20197;-71
2023/10/02 12:12:45;;;;;;;35.17;10.50;;;19.30;99.90;;;;;;4976431;28;20233;-70
2023/10/02 12:15:16;;;;;;;38.23;11.13;;;19.10;99.90;;;;;;4973289;28;20277;-66
2023/10/02 12:17:44;;;;;;;36.80;9.90;;;19.00;99.90;;;;;;4985498;28;20675;-72
2023/10/02 12:20:16;;;;;;;38.13;10.13;;;19.00;99.90;;;;;;4965696;28;20197;-71
2023/10/02 12:22:47;;;;;;;40.80;10.60;;;19.00;99.90;;;;;;4982928;28;20183;-71
2023/10/02 12:25:16;;;;;;;35.90;9.60;;;19.00;99.90;;;;;;4982597;28;20262;-71
2023/10/02 12:27:44;;;;;;;22.30;8.80;;;19.00;99.90;;;;;;4978019;28;20179;-71
2023/10/02 12:30:11;;;;;;;33.63;11.40;;;19.10;99.90;;;;;;4979996;28;20216;-69
2023/10/02 12:32:49;;;;;;;40.97;12.27;;;19.10;99.90;;;;;;4974150;28;20234;-71
2023/10/02 12:35:17;;;;;;;35.73;10.23;;;19.10;99.90;;;;;;4988955;28;20212;-71
2023/10/02 12:37:44;;;;;;;37.60;10.10;;;19.10;99.90;;;;;;4984325;28;20668;-69
2023/10/02 12:40:18;;;;;;;35.87;10.33;;;19.10;99.90;;;;;;4987666;28;20209;-72
2023/10/02 12:42:46;;;;;;;35.63;9.83;;;19.10;99.90;;;;;;4975687;28;20684;-71
2023/10/02 12:45:13;;;;;;;31.00;8.93;;;19.10;99.90;;;;;;4977841;28;20178;-71
2023/10/02 12:47:41;;;;;;;35.00;9.70;;;19.00;99.90;;;;;;4993465;28;20519;-69
2023/10/02 12:50:10;;;;;;;34.33;9.87;;;19.00;99.90;;;;;;4986579;28;20238;-71
2023/10/02 12:52:38;;;;;;;33.77;9.67;;;18.90;99.90;;;;;;4975858;28;20224;-71
2023/10/02 12:55:05;;;;;;;34.43;9.33;;;18.80;99.90;;;;;;4959175;28;20301;-69
2023/10/02 12:57:37;;;;;;;31.20;10.10;;;18.80;99.90;;;;;;4993378;28;20664;-70
2023/10/02 13:00:16;;;;;;;30.50;9.17;;;18.70;99.90;;;;;;4976595;28;20186;-69
2023/10/02 13:02:44;;;;;;;27.53;9.60;;;18.60;99.90;;;;;;4989206;28;20190;-68
2023/10/02 13:05:12;;;;;;;31.80;9.53;;;18.60;99.90;;;;;;4989107;28;20232;-69
2023/10/02 13:07:41;;;;;;;27.67;9.70;;;18.60;99.90;;;;;;4973910;28;20652;-71
2023/10/02 13:10:10;;;;;;;40.60;10.00;;;18.60;99.90;;;;;;4969791;28;20188;-69
2023/10/02 13:12:38;;;;;;;34.40;10.63;;;18.60;99.90;;;;;;4993379;28;20680;-70
2023/10/02 13:15:06;;;;;;;28.67;9.17;;;18.50;99.90;;;;;;4990206;28;20191;-70
2023/10/02 13:17:34;;;;;;;32.03;10.13;;;18.50;99.90;;;;;;4956899;28;20648;-70
2023/10/02 13:20:07;;;;;;;32.47;9.63;;;18.50;99.90;;;;;;4973761;28;20182;-71
2023/10/02 13:22:37;;;;;;;28.43;8.53;;;18.50;99.90;;;;;;4945177;28;20183;-70
2023/10/02 13:25:05;;;;;;;34.83;10.43;;;18.50;99.90;;;;;;4993486;28;20234;-71
2023/10/02 13:27:33;;;;;;;30.97;10.00;;;18.40;99.90;;;;;;4977540;28;20278;-71
2023/10/02 13:30:00;;;;;;;35.20;9.73;;;18.30;99.90;;;;;;4977063;28;20179;-70
2023/10/02 13:32:29;;;;;;;33.17;10.00;;;18.40;99.90;;;;;;4977011;28;20215;-69
2023/10/02 13:34:56;;;;;;;29.67;9.73;;;18.40;99.90;;;;;;4993113;28;20278;-71
2023/10/02 13:37:23;;;;;;;34.50;9.90;;;18.40;99.90;;;;;;4959332;28;20196;-71
2023/10/02 13:39:51;;;;;;;35.40;9.63;;;18.40;99.90;;;;;;4977120;28;20246;-70
2023/10/02 13:42:18;;;;;;;24.73;8.83;;;18.40;99.90;;;;;;4959816;28;20286;-70
2023/10/02 13:44:46;;;;;;;34.00;9.37;;;18.40;99.90;;;;;;4978657;28;20582;-72
2023/10/02 13:47:13;;;;;;;30.97;9.77;;;18.30;99.90;;;;;;4996344;28;20186;-71
2023/10/02 13:49:40;;;;;;;33.27;9.50;;;18.30;99.90;;;;;;4996099;28;20225;-70
2023/10/02 13:52:09;;;;;;;35.00;11.00;;;18.30;99.90;;;;;;4996017;28;20210;-72
2023/10/02 13:54:37;;;;;;;35.50;9.40;;;18.30;99.90;;;;;;4995605;28;20203;-70
2023/10/02 13:57:04;;;;;;;25.70;9.13;;;18.30;99.90;;;;;;4977201;28;20258;-71
2023/10/02 13:59:32;;;;;;;22.63;8.17;;;18.30;99.90;;;;;;4959085;28;20584;-70
2023/10/02 14:01:59;;;;;;;25.43;8.87;;;18.30;99.90;;;;;;4976464;28;20179;-70
2023/10/02 14:04:27;;;;;;;25.93;9.20;;;18.30;99.90;;;;;;4977161;28;20673;-71
2023/10/02 14:06:55;;;;;;;35.77;10.50;;;18.30;99.90;;;;;;4977722;28;20731;-71
2023/10/02 14:09:24;;;;;;;25.87;9.30;;;18.30;99.90;;;;;;4996233;28;20257;-71
2023/10/02 14:11:52;;;;;;;32.20;9.97;;;18.30;99.90;;;;;;4995596;28;20225;-70
2023/10/02 14:14:19;;;;;;;36.03;10.27;;;18.40;99.90;;;;;;4977978;28;20731;-69